createdAt,value
2019-04-26T00:00:41.296Z,9.07
2019-04-26T00:03:12.169Z,8.40
2019-04-26T00:05:41.435Z,7.37
2019-04-26T00:08:19.475Z,9.60
2019-04-26T00:11:02.679Z,9.83
2019-04-26T00:16:38.355Z,11.63
2019-04-26T00:19:07.555Z,9.70
2019-04-26T00:21:37.234Z,8.87
2019-04-26T00:24:07.015Z,8.97
2019-04-26T00:26:39.396Z,10.73
2019-04-26T00:29:08.757Z,10.03
2019-04-26T00:31:41.415Z,9.40
2019-04-26T00:34:13.815Z,10.43
2019-04-26T00:36:43.161Z,12.07
2019-04-26T00:39:13.330Z,11.33
2019-04-26T00:41:43.315Z,7.17
2019-04-26T00:44:15.195Z,15.03
2019-04-26T00:46:47.695Z,11.60
2019-04-26T00:49:19.226Z,9.47
2019-04-26T00:51:50.862Z,11.37
2019-04-26T00:54:22.166Z,8.37
2019-04-26T00:56:53.019Z,8.20
2019-04-26T00:59:22.775Z,15.43
2019-04-26T01:01:54.036Z,11.97
2019-04-26T01:04:23.655Z,9.70
2019-04-26T01:06:54.655Z,9.77
2019-04-26T01:09:26.052Z,8.40
2019-04-26T01:11:55.156Z,7.50
2019-04-26T01:14:24.457Z,9.53
2019-04-26T01:16:53.715Z,8.87
2019-04-26T01:19:24.642Z,12.13
2019-04-26T01:21:57.718Z,7.90
2019-04-26T01:24:31.990Z,10.00
2019-04-26T01:27:05.336Z,10.47
2019-04-26T01:29:36.596Z,11.73
2019-04-26T01:32:13.395Z,9.17
2019-04-26T01:37:32.623Z,11.70
2019-04-26T01:40:06.836Z,12.10
2019-04-26T01:42:43.936Z,10.17
2019-04-26T01:45:25.824Z,8.87
2019-04-26T01:47:59.941Z,12.83
2019-04-26T01:50:31.957Z,14.70
2019-04-26T01:53:02.422Z,14.40
2019-04-26T01:55:34.115Z,15.27
2019-04-26T01:58:06.336Z,12.47
2019-04-26T02:00:37.302Z,10.93
2019-04-26T02:03:08.597Z,9.70
2019-04-26T02:05:37.876Z,11.37
2019-04-26T02:08:07.315Z,11.50
2019-04-26T02:10:36.855Z,11.47
2019-04-26T02:13:06.475Z,11.33
2019-04-26T02:18:10.696Z,16.07
2019-04-26T02:20:53.455Z,10.03
2019-04-26T02:25:56.197Z,10.73
2019-04-26T02:28:26.762Z,9.77
2019-04-26T02:31:01.088Z,11.43
2019-04-26T02:33:31.792Z,10.70
2019-04-26T02:36:05.156Z,11.17
2019-04-26T02:38:35.100Z,12.10
2019-04-26T02:41:37.755Z,10.33
2019-04-26T02:44:10.016Z,9.93
2019-04-26T02:46:49.436Z,11.83
2019-04-26T02:49:35.058Z,11.93
2019-04-26T02:52:19.917Z,9.93
2019-04-26T02:54:54.856Z,12.87
2019-04-26T02:57:50.199Z,13.97
2019-04-26T03:00:23.403Z,11.17
2019-04-26T03:02:56.022Z,11.43
2019-04-26T03:05:26.621Z,14.97
2019-04-26T03:07:59.061Z,15.53
2019-04-26T03:10:32.629Z,13.63
2019-04-26T03:13:06.957Z,12.00
2019-04-26T03:15:46.676Z,16.83
2019-04-26T03:18:39.490Z,11.93
2019-04-26T03:21:15.077Z,15.23
2019-04-26T03:24:11.796Z,14.67
2019-04-26T03:26:46.596Z,13.77
2019-04-26T03:29:31.872Z,15.67
2019-04-26T03:32:18.661Z,13.00
2019-04-26T03:35:18.038Z,13.13
2019-04-26T03:38:03.699Z,12.07
2019-04-26T03:40:57.176Z,16.47
2019-04-26T03:43:39.107Z,12.57
2019-04-26T03:46:37.589Z,11.53
2019-04-26T03:49:44.221Z,13.70
2019-04-26T03:52:25.594Z,14.07
2019-04-26T03:55:03.942Z,16.47
2019-04-26T03:58:04.475Z,15.47
2019-04-26T04:00:42.813Z,12.40
2019-04-26T04:03:33.403Z,14.47
2019-04-26T04:06:05.061Z,14.10
2019-04-26T04:09:03.059Z,13.60
2019-04-26T04:11:43.116Z,16.40
2019-04-26T04:14:44.381Z,11.83
2019-04-26T04:17:17.913Z,16.47
2019-04-26T04:20:13.462Z,17.83
2019-04-26T04:22:54.737Z,12.00
2019-04-26T04:25:33.315Z,14.47
2019-04-26T04:28:17.796Z,12.00
2019-04-26T04:30:58.878Z,12.33
2019-04-26T04:33:37.237Z,14.13
2019-04-26T04:36:11.457Z,12.70
2019-04-26T04:39:11.277Z,15.87
2019-04-26T04:41:58.442Z,14.97
2019-04-26T04:45:06.851Z,14.60
2019-04-26T04:47:59.118Z,13.10
2019-04-26T04:50:35.736Z,16.47
2019-04-26T04:53:12.116Z,14.60
2019-04-26T04:55:59.336Z,12.93
2019-04-26T04:58:32.356Z,16.20
2019-04-26T05:01:44.225Z,13.83
2019-04-26T05:04:18.819Z,14.83
2019-04-26T05:07:19.320Z,14.20
2019-04-26T05:09:58.180Z,15.60
2019-04-26T05:12:57.856Z,15.63
2019-04-26T05:16:03.636Z,13.27
2019-04-26T05:19:26.717Z,12.77
2019-04-26T05:22:13.736Z,11.97
2019-04-26T05:25:09.428Z,13.33
2019-04-26T05:28:07.325Z,15.63
2019-04-26T05:31:09.342Z,16.40
2019-04-26T05:33:54.639Z,11.50
2019-04-26T05:36:35.642Z,11.73
2019-04-26T05:39:17.122Z,13.83
2019-04-26T05:42:19.303Z,12.50
2019-04-26T05:45:08.643Z,11.90
2019-04-26T05:47:45.263Z,14.50
2019-04-26T05:50:53.680Z,10.73
2019-04-26T05:53:57.618Z,14.53
2019-04-26T05:56:58.374Z,14.00
2019-04-26T05:59:33.196Z,13.93
2019-04-26T06:02:40.223Z,12.63
2019-04-26T06:15:17.170Z,18.90
2019-04-26T06:18:14.893Z,16.53
2019-04-26T06:20:48.315Z,16.17
2019-04-26T06:23:41.989Z,19.27
2019-04-26T06:26:54.293Z,13.03
2019-04-26T06:29:58.740Z,17.97
2019-04-26T06:32:40.303Z,17.07
2019-04-26T06:35:15.414Z,15.77
2019-04-26T06:37:49.533Z,16.00
2019-04-26T06:40:41.938Z,13.87
2019-04-26T06:43:30.646Z,17.80
2019-04-26T06:46:12.954Z,14.00
2019-04-26T06:49:03.377Z,16.60
2019-04-26T06:52:00.701Z,16.63
2019-04-26T06:54:59.988Z,15.27
2019-04-26T06:57:59.934Z,23.23
2019-04-26T07:00:37.425Z,15.43
2019-04-26T07:03:18.110Z,17.77
2019-04-26T07:05:51.423Z,18.17
2019-04-26T07:08:40.458Z,20.40
2019-04-26T07:12:05.187Z,15.27
2019-04-26T07:14:57.346Z,20.13
2019-04-26T07:18:04.289Z,17.10
2019-04-26T07:20:40.701Z,15.73
2019-04-26T07:23:41.220Z,20.03
2019-04-26T07:26:38.949Z,23.07
2019-04-26T07:29:30.462Z,21.00
2019-04-26T07:32:14.775Z,20.40
2019-04-26T07:34:47.897Z,20.33
2019-04-26T07:37:50.146Z,15.90
2019-04-26T07:40:47.440Z,22.37
2019-04-26T07:43:24.039Z,21.47
2019-04-26T07:46:29.408Z,20.67
2019-04-26T07:49:18.583Z,21.87
2019-04-26T07:52:06.454Z,18.10
2019-04-26T07:54:59.365Z,21.10
2019-04-26T07:57:49.490Z,21.23
2019-04-26T08:00:25.586Z,19.23
2019-04-26T08:03:10.902Z,21.37
2019-04-26T08:05:59.080Z,18.50
2019-04-26T08:08:34.519Z,22.33
2019-04-26T08:11:06.919Z,23.60
2019-04-26T08:13:40.207Z,22.93
2019-04-26T08:16:22.582Z,19.70
2019-04-26T08:19:02.142Z,21.30
2019-04-26T08:21:36.279Z,25.87
2019-04-26T08:24:16.720Z,20.87
2019-04-26T08:26:50.582Z,23.23
2019-04-26T08:29:22.934Z,23.27
2019-04-26T08:31:57.863Z,20.13
2019-04-26T08:34:33.742Z,19.07
2019-04-26T08:37:08.172Z,16.63
2019-04-26T08:39:45.619Z,21.53
2019-04-26T08:42:21.213Z,20.30
2019-04-26T08:44:46.867Z,17.57
2019-04-26T08:47:26.355Z,24.93
2019-04-26T08:50:00.601Z,22.30
2019-04-26T08:52:32.900Z,21.77
2019-04-26T08:55:05.939Z,23.73
2019-04-26T08:57:38.139Z,30.87
2019-04-26T09:00:15.470Z,23.10
2019-04-26T09:02:54.762Z,21.10
2019-04-26T09:05:29.342Z,22.67
2019-04-26T09:08:00.803Z,19.53
2019-04-26T09:10:33.264Z,25.73
2019-04-26T09:13:04.603Z,23.63
2019-04-26T09:15:40.724Z,28.23
2019-04-26T09:18:10.721Z,27.47
2019-04-26T09:20:42.902Z,28.03
2019-04-26T09:23:39.937Z,25.67
2019-04-26T09:26:12.513Z,26.70
2019-04-26T09:28:52.974Z,24.73
2019-04-26T09:31:32.498Z,24.83
2019-04-26T09:34:06.428Z,25.87
2019-04-26T09:36:34.740Z,32.17
2019-04-26T09:39:08.363Z,29.27
2019-04-26T09:41:37.481Z,29.73
2019-04-26T09:44:16.587Z,28.53
2019-04-26T09:46:52.773Z,26.17
2019-04-26T09:49:37.370Z,26.80
2019-04-26T09:52:09.363Z,25.23
2019-04-26T09:54:39.074Z,21.37
2019-04-26T09:57:08.880Z,30.70
2019-04-26T09:59:40.087Z,27.03
2019-04-26T10:02:11.803Z,27.73
2019-04-26T10:04:41.642Z,33.13
2019-04-26T10:07:11.402Z,31.83
2019-04-26T10:09:41.067Z,30.47
2019-04-26T10:12:14.919Z,26.40
2019-04-26T10:15:03.979Z,27.03
2019-04-26T10:17:34.679Z,29.27
2019-04-26T10:20:04.782Z,32.43
2019-04-26T10:22:34.298Z,31.77
2019-04-26T10:25:07.759Z,29.57
2019-04-26T10:27:36.465Z,30.67
2019-04-26T10:30:09.779Z,26.60
2019-04-26T10:32:39.260Z,31.57
2019-04-26T10:35:08.761Z,24.67
2019-04-26T10:37:48.034Z,29.50
2019-04-26T10:40:16.939Z,28.90
2019-04-26T10:42:46.260Z,36.97
2019-04-26T10:45:17.402Z,33.67
2019-04-26T10:47:46.639Z,28.43
2019-04-26T10:50:16.798Z,32.83
2019-04-26T10:52:59.641Z,34.33
2019-04-26T10:55:33.919Z,31.13
2019-04-26T10:58:11.418Z,32.13
2019-04-26T11:00:48.494Z,36.00
2019-04-26T11:03:16.537Z,29.17
2019-04-26T11:05:49.374Z,41.30
2019-04-26T11:08:17.629Z,32.07
2019-04-26T11:10:48.906Z,33.53
2019-04-26T11:13:18.984Z,28.33
2019-04-26T11:15:49.444Z,30.57
2019-04-26T11:18:19.870Z,29.77
2019-04-26T11:20:49.819Z,36.73
2019-04-26T11:23:19.342Z,30.70
2019-04-26T11:25:49.700Z,38.13
2019-04-26T11:28:25.224Z,31.07
2019-04-26T11:30:57.282Z,29.77
2019-04-26T11:33:44.241Z,37.80
2019-04-26T11:36:07.336Z,29.00
2019-04-26T11:38:37.818Z,27.57
2019-04-26T11:41:07.616Z,28.90
2019-04-26T11:43:37.299Z,26.07
2019-04-26T11:46:06.708Z,28.20
2019-04-26T11:48:36.639Z,22.13
2019-04-26T11:51:06.119Z,27.83
2019-04-26T11:53:40.456Z,25.77
2019-04-26T11:56:09.260Z,26.87
2019-04-26T11:58:38.679Z,21.00
2019-04-26T12:01:09.965Z,31.10
2019-04-26T12:03:41.085Z,24.10
2019-04-26T12:06:28.204Z,31.70
2019-04-26T12:08:58.831Z,28.93
2019-04-26T12:11:34.121Z,24.67
2019-04-26T12:14:00.349Z,26.53
2019-04-26T12:16:30.233Z,26.57
2019-04-26T12:19:00.465Z,22.70
2019-04-26T12:21:30.479Z,29.77
2019-04-26T12:24:01.078Z,24.20
2019-04-26T12:26:42.363Z,26.70
2019-04-26T12:29:02.341Z,27.30
2019-04-26T12:31:32.799Z,24.10
2019-04-26T12:34:02.311Z,19.03
2019-04-26T12:36:33.270Z,23.53
2019-04-26T12:39:05.565Z,33.23
2019-04-26T12:41:40.487Z,19.83
2019-04-26T12:44:07.426Z,22.70
2019-04-26T12:46:41.242Z,35.07
2019-04-26T12:49:10.623Z,25.27
2019-04-26T12:51:42.835Z,22.53
2019-04-26T12:54:10.605Z,23.93
2019-04-26T12:56:39.964Z,21.97
2019-04-26T12:59:09.002Z,27.97
2019-04-26T13:01:38.185Z,21.40
2019-04-26T13:04:09.611Z,21.90
2019-04-26T13:06:46.680Z,28.67
2019-04-26T13:09:21.891Z,27.37
2019-04-26T13:11:59.399Z,21.90
2019-04-26T13:14:42.960Z,24.63
2019-04-26T13:17:11.685Z,19.60
2019-04-26T13:19:41.287Z,25.23
2019-04-26T13:22:12.475Z,25.87
2019-04-26T13:24:41.089Z,25.57
2019-04-26T13:27:12.009Z,27.07
2019-04-26T13:29:41.502Z,22.63
2019-04-26T13:32:11.243Z,28.13
2019-04-26T13:34:40.963Z,22.33
2019-04-26T13:37:10.085Z,23.87
2019-04-26T13:39:39.485Z,23.80
2019-04-26T13:42:09.900Z,23.27
2019-04-26T13:44:53.734Z,27.10
2019-04-26T13:47:39.762Z,19.73
2019-04-26T13:50:10.805Z,22.60
2019-04-26T13:52:40.090Z,21.30
2019-04-26T13:55:09.387Z,29.53
2019-04-26T13:57:40.135Z,26.67
2019-04-26T14:00:13.561Z,17.73
2019-04-26T14:02:43.371Z,19.57
2019-04-26T14:05:15.316Z,16.53
2019-04-26T14:07:43.990Z,22.63
2019-04-26T14:10:13.518Z,24.80
2019-04-26T14:12:46.271Z,26.53
2019-04-26T14:15:15.608Z,16.83
2019-04-26T14:17:45.259Z,22.40
2019-04-26T14:20:14.984Z,20.07
2019-04-26T14:22:48.664Z,19.33
2019-04-26T14:25:20.085Z,16.67
2019-04-26T14:27:51.564Z,18.00
2019-04-26T14:30:21.407Z,21.00
2019-04-26T14:32:53.266Z,22.30
2019-04-26T14:35:21.823Z,19.83
2019-04-26T14:37:51.594Z,17.67
2019-04-26T14:40:21.106Z,23.30
2019-04-26T14:42:50.912Z,17.77
2019-04-26T14:45:23.900Z,21.90
2019-04-26T14:47:51.315Z,25.80
2019-04-26T14:50:28.159Z,17.80
2019-04-26T14:52:58.276Z,19.07
2019-04-26T14:55:27.013Z,23.07
2019-04-26T14:57:56.147Z,19.00
2019-04-26T15:00:43.827Z,16.10
2019-04-26T15:03:31.161Z,21.30
2019-04-26T15:06:04.500Z,20.30
2019-04-26T15:08:40.516Z,19.10
2019-04-26T15:11:08.040Z,18.03
2019-04-26T15:13:40.383Z,20.57
2019-04-26T15:16:10.334Z,19.93
2019-04-26T15:18:40.604Z,20.50
2019-04-26T15:21:12.915Z,17.27
2019-04-26T15:23:40.867Z,17.77
2019-04-26T15:26:10.210Z,14.63
2019-04-26T15:28:39.458Z,16.03
2019-04-26T15:31:09.022Z,13.10
2019-04-26T15:33:44.212Z,15.67
2019-04-26T15:36:12.816Z,17.73
2019-04-26T15:38:44.885Z,16.60
2019-04-26T15:41:30.844Z,14.73
2019-04-26T15:44:02.700Z,17.97
2019-04-26T15:46:33.886Z,17.33
2019-04-26T15:49:05.272Z,18.30
2019-04-26T15:51:36.548Z,14.57
2019-04-26T15:54:05.722Z,14.97
2019-04-26T15:56:35.164Z,15.03
2019-04-26T15:59:04.942Z,14.17
2019-04-26T16:01:34.366Z,13.70
2019-04-26T16:04:06.292Z,14.10
2019-04-26T16:06:37.446Z,13.83
2019-04-26T16:09:13.815Z,17.93
2019-04-26T16:11:42.853Z,14.13
2019-04-26T16:14:14.304Z,12.90
2019-04-26T16:16:43.719Z,12.50
2019-04-26T16:19:13.096Z,11.13
2019-04-26T16:21:42.602Z,9.97
2019-04-26T16:24:12.914Z,12.77
2019-04-26T16:26:50.367Z,12.27
2019-04-26T16:29:18.165Z,10.27
2019-04-26T16:32:07.015Z,7.80
2019-04-26T16:34:42.927Z,10.50
2019-04-26T16:37:15.076Z,11.03
2019-04-26T16:39:46.053Z,11.37
2019-04-26T16:42:13.959Z,7.87
2019-04-26T16:44:45.046Z,12.63
2019-04-26T16:47:14.545Z,8.70
2019-04-26T16:49:46.451Z,5.93
2019-04-26T16:52:20.663Z,9.93
2019-04-26T16:54:52.893Z,4.70
2019-04-26T16:57:24.196Z,7.03
2019-04-26T16:59:57.526Z,10.63
2019-04-26T17:02:26.522Z,7.70
2019-04-26T17:04:54.097Z,5.47
2019-04-26T17:07:27.327Z,6.60
2019-04-26T17:09:58.967Z,6.80
2019-04-26T17:12:24.847Z,6.07
2019-04-26T17:14:54.401Z,5.83
2019-04-26T17:17:24.065Z,5.90
2019-04-26T17:19:53.442Z,4.27
2019-04-26T17:22:24.024Z,2.60
2019-04-26T17:24:57.561Z,6.20
2019-04-26T17:27:27.061Z,5.23
2019-04-26T17:29:56.982Z,4.07
2019-04-26T17:32:26.920Z,3.17
2019-04-26T17:34:59.569Z,4.87
2019-04-26T17:37:28.023Z,4.03
2019-04-26T17:39:57.340Z,6.33
2019-04-26T17:42:30.356Z,3.77
2019-04-26T17:45:03.900Z,2.33
2019-04-26T17:47:34.638Z,4.53
2019-04-26T17:50:06.104Z,4.03
2019-04-26T17:52:36.041Z,4.67
2019-04-26T17:55:07.866Z,4.37
2019-04-26T17:57:36.956Z,5.20
2019-04-26T18:00:15.394Z,4.13
2019-04-26T18:02:47.940Z,2.00
2019-04-26T18:05:14.545Z,2.87
2019-04-26T18:07:50.388Z,5.43
2019-04-26T18:10:15.091Z,6.43
2019-04-26T18:12:47.876Z,4.80
2019-04-26T18:15:19.535Z,4.17
2019-04-26T18:17:54.212Z,4.03
2019-04-26T18:20:37.356Z,4.80
2019-04-26T18:23:10.255Z,3.83
2019-04-26T18:25:37.578Z,3.77
2019-04-26T18:28:08.838Z,4.00
2019-04-26T18:30:40.372Z,3.20
2019-04-26T18:33:09.364Z,4.47
2019-04-26T18:35:38.716Z,4.10
2019-04-26T18:38:12.591Z,3.53
2019-04-26T18:40:57.294Z,4.77
2019-04-26T18:43:16.793Z,4.43
2019-04-26T18:45:46.365Z,6.23
2019-04-26T18:48:16.531Z,4.67
2019-04-26T18:50:46.240Z,2.73
2019-04-26T18:53:19.650Z,5.73
2019-04-26T18:55:50.383Z,3.87
2019-04-26T18:58:23.493Z,6.10
2019-04-26T19:00:53.142Z,5.90
2019-04-26T19:03:24.734Z,4.50
2019-04-26T19:05:58.491Z,3.27
2019-04-26T19:08:42.936Z,4.00
2019-04-26T19:11:03.325Z,3.83
2019-04-26T19:13:37.784Z,5.10
2019-04-26T19:16:10.489Z,5.23
2019-04-26T19:18:54.768Z,4.17
2019-04-26T19:21:40.617Z,3.07
2019-04-26T19:24:19.798Z,4.47
2019-04-26T19:26:49.596Z,3.13
2019-04-26T19:29:18.513Z,2.30
2019-04-26T19:31:51.914Z,4.70
2019-04-26T19:34:21.915Z,3.40
2019-04-26T19:36:56.334Z,3.23
2019-04-26T19:39:32.401Z,3.93
2019-04-26T19:41:58.685Z,3.03
2019-04-26T19:44:28.083Z,4.03
2019-04-26T19:47:17.818Z,2.73
2019-04-26T19:50:09.599Z,3.47
2019-04-26T19:52:46.259Z,2.87
2019-04-26T19:55:20.285Z,4.67
2019-04-26T19:57:54.101Z,2.67
2019-04-26T20:00:23.376Z,5.17
2019-04-26T20:02:52.805Z,3.47
2019-04-26T20:05:22.571Z,3.53
2019-04-26T20:07:53.729Z,5.57
2019-04-26T20:10:23.313Z,2.93
2019-04-26T20:12:56.418Z,4.80
2019-04-26T20:15:28.723Z,5.43
2019-04-26T20:18:00.280Z,4.53
2019-04-26T20:20:34.608Z,4.03
2019-04-26T20:23:05.780Z,4.27
2019-04-26T20:25:31.357Z,4.33
2019-04-26T20:28:01.498Z,3.07
2019-04-26T20:30:41.809Z,2.90
2019-04-26T20:33:12.113Z,3.77
2019-04-26T20:35:42.988Z,4.00
2019-04-26T20:38:14.680Z,4.37
2019-04-26T20:40:47.561Z,3.30
2019-04-26T20:43:25.838Z,4.20
2019-04-26T20:46:07.961Z,3.60
2019-04-26T20:48:19.361Z,3.47
2019-04-26T20:50:49.718Z,3.17
2019-04-26T20:53:19.178Z,4.53
2019-04-26T20:55:50.700Z,5.40
2019-04-26T20:58:21.418Z,5.63
2019-04-26T21:00:54.518Z,5.90
2019-04-26T21:03:26.003Z,4.13
2019-04-26T21:05:59.046Z,2.97
2019-04-26T21:08:26.737Z,4.70
2019-04-26T21:11:00.171Z,6.53
2019-04-26T21:13:30.861Z,3.60
2019-04-26T21:16:03.562Z,4.60
2019-04-26T21:18:33.553Z,4.27
2019-04-26T21:21:05.901Z,4.90
2019-04-26T21:23:39.877Z,8.70
2019-04-26T21:26:16.393Z,5.13
2019-04-26T21:28:48.879Z,5.57
2019-04-26T21:31:28.418Z,9.17
2019-04-26T21:34:15.400Z,5.67
2019-04-26T21:37:04.645Z,6.83
2019-04-26T21:39:44.210Z,4.70
2019-04-26T21:42:17.220Z,4.00
2019-04-26T21:44:51.822Z,7.23
2019-04-26T21:47:18.146Z,3.87
2019-04-26T21:49:54.108Z,5.20
2019-04-26T21:52:27.561Z,6.43
2019-04-26T21:54:56.358Z,6.93
2019-04-26T21:57:28.126Z,6.47
2019-04-26T21:59:59.721Z,6.13
2019-04-26T22:02:33.980Z,5.33
2019-04-26T22:05:03.177Z,7.30
2019-04-26T22:07:34.986Z,5.77
2019-04-26T22:10:11.983Z,7.53
2019-04-26T22:12:43.236Z,7.67
2019-04-26T22:15:15.323Z,6.13
2019-04-26T22:17:55.803Z,5.53
2019-04-26T22:20:44.833Z,6.70
2019-04-26T22:23:21.462Z,6.37
2019-04-26T22:25:54.050Z,5.57
2019-04-26T22:28:26.994Z,6.53
2019-04-26T22:30:59.387Z,8.27
2019-04-26T22:33:30.909Z,11.03
2019-04-26T22:36:01.658Z,8.97
2019-04-26T22:38:33.913Z,8.07
2019-04-26T22:41:05.599Z,6.23
2019-04-26T22:43:36.598Z,7.27
2019-04-26T22:46:10.719Z,7.73
2019-04-26T22:48:41.818Z,5.67
2019-04-26T22:51:11.345Z,5.03
2019-04-26T22:53:41.179Z,4.57
2019-04-26T22:56:10.858Z,3.77
2019-04-26T22:58:41.377Z,3.90
2019-04-26T23:01:10.806Z,3.17
2019-04-26T23:03:46.308Z,5.07
2019-04-26T23:06:15.223Z,6.57
2019-04-26T23:08:44.199Z,4.60
2019-04-26T23:11:14.098Z,4.07
2019-04-26T23:13:57.044Z,3.30
2019-04-26T23:16:28.478Z,3.27
2019-04-26T23:19:04.874Z,3.60
2019-04-26T23:21:43.446Z,5.93
2019-04-26T23:24:11.426Z,2.90
2019-04-26T23:26:45.309Z,3.17
2019-04-26T23:29:18.078Z,4.60
2019-04-26T23:31:46.618Z,2.77
2019-04-26T23:34:15.937Z,2.80
2019-04-26T23:36:49.053Z,3.13
2019-04-26T23:39:16.840Z,3.47
2019-04-26T23:41:46.178Z,1.43
2019-04-26T23:44:15.938Z,2.07
2019-04-26T23:47:01.186Z,1.33
2019-04-26T23:49:31.020Z,1.90
2019-04-26T23:52:00.816Z,1.80
2019-04-26T23:54:32.324Z,3.30
2019-04-26T23:57:02.889Z,1.53
2019-04-26T23:59:36.333Z,2.57
